Time,TemperatureF,DewpointF,PressureIn,WindDirection,WindDirectionDegrees,WindSpeedMPH,WindSpeedGustMPH,Humidity,HourlyPrecipIn,Conditions,Clouds,dailyrainin,SoftwareType,DateUTC
2013-04-19 00:34:00,42.8,40.0,29.82,NW,322,9.0,16.0,90,0.00,,,0.00,weatherlink.com 1.10,2013-04-18 23:34:00,
2013-04-19 00:49:00,42.5,40.0,29.83,NNW,330,13.0,16.0,90,0.00,,,0.00,weatherlink.com 1.10,2013-04-18 23:49:00,
2013-04-19 01:04:00,42.3,40.0,29.84,NW,310,9.0,15.0,90,0.00,,,0.00,weatherlink.com 1.10,2013-04-19 00:04:00,
2013-04-19 01:19:00,42.1,39.0,29.84,NNW,335,9.0,15.0,90,0.00,,,0.00,weatherlink.com 1.10,2013-04-19 00:19:00,
2013-04-19 01:34:00,41.8,39.0,29.85,WNW,302,6.0,12.0,91,0.00,,,0.00,weatherlink.com 1.10,2013-04-19 00:34:00,
2013-04-19 01:49:00,41.5,39.0,29.86,NNW,348,3.0,11.0,91,0.00,,,0.00,weatherlink.com 1.10,2013-04-19 00:49:00,
2013-04-19 02:04:00,41.4,39.0,29.86,NW,321,5.0,12.0,92,0.00,,,0.00,weatherlink.com 1.10,2013-04-19 01:04:00,
2013-04-19 02:19:00,41.1,39.0,29.87,NW,322,5.0,10.0,92,0.00,,,0.00,weatherlink.com 1.10,2013-04-19 01:19:00,
2013-04-19 02:34:00,41.0,39.0,29.88,WNW,285,4.0,13.0,92,0.00,,,0.00,weatherlink.com 1.10,2013-04-19 01:34:00,
2013-04-19 02:49:00,40.8,39.0,29.88,NW,314,4.0,11.0,92,0.00,,,0.00,weatherlink.com 1.10,2013-04-19 01:49:00,
2013-04-19 03:04:00,40.7,39.0,29.88,North,352,7.0,13.0,92,0.00,,,0.00,weatherlink.com 1.10,2013-04-19 02:04:00,
2013-04-19 03:19:00,41.0,39.0,29.89,NW,304,9.0,15.0,92,0.00,,,0.00,weatherlink.com 1.10,2013-04-19 02:19:00,
2013-04-19 03:34:00,41.0,39.0,29.89,WNW,300,4.0,9.0,91,0.00,,,0.00,weatherlink.com 1.10,2013-04-19 02:34:00,
2013-04-19 03:49:00,41.1,39.0,29.90,NNW,346,3.0,13.0,91,0.00,,,0.00,weatherlink.com 1.10,2013-04-19 02:49:00,
2013-04-19 04:04:00,40.8,38.0,29.90,North,359,4.0,11.0,91,0.00,,,0.00,weatherlink.com 1.10,2013-04-19 03:04:00,
2013-04-19 04:19:00,40.9,39.0,29.91,NW,319,6.0,13.0,91,0.00,,,0.00,weatherlink.com 1.10,2013-04-19 03:19:00,
2013-04-19 04:34:00,40.8,38.0,29.92,NW,325,7.0,11.0,90,0.00,,,0.00,weatherlink.com 1.10,2013-04-19 03:34:00,
2013-04-19 04:49:00,40.8,38.0,29.92,NNW,339,2.0,12.0,90,0.00,,,0.00,weatherlink.com 1.10,2013-04-19 03:49:00,
2013-04-19 05:04:00,40.7,38.0,29.93,North,1,10.0,14.0,90,0.00,,,0.00,weatherlink.com 1.10,2013-04-19 04:04:00,
2013-04-19 05:20:00,40.7,38.0,29.94,NNW,341,5.0,15.0,90,0.00,,,0.00,weatherlink.com 1.10,2013-04-19 04:20:00,
2013-04-19 05:35:00,40.4,38.0,29.94,North,357,6.0,13.0,91,0.00,,,0.00,weatherlink.com 1.10,2013-04-19 04:35:00,
2013-04-19 05:50:00,40.8,38.0,29.94,NW,325,8.0,12.0,91,0.00,,,0.00,weatherlink.com 1.10,2013-04-19 04:50:00,
2013-04-19 06:05:00,40.4,38.0,29.95,NNE,16,5.0,14.0,91,0.00,,,0.00,weatherlink.com 1.10,2013-04-19 05:05:00,
2013-04-19 06:20:00,-999.0,-99.9,29.96,North,-999,-999.0,-999.0,-999,0.00,,,0.00,weatherlink.com 1.10,2013-04-19 05:20:00,
2013-04-19 06:35:00,-999.0,-99.9,29.97,North,-999,-999.0,-999.0,-999,0.00,,,0.00,weatherlink.com 1.10,2013-04-19 05:35:00,
2013-04-19 06:50:00,-999.0,-99.9,29.97,North,-999,-999.0,-999.0,-999,0.00,,,0.00,weatherlink.com 1.10,2013-04-19 05:50:00,
2013-04-19 07:05:00,-999.0,-99.9,29.98,North,-999,-999.0,-999.0,-999,0.00,,,0.00,weatherlink.com 1.10,2013-04-19 06:05:00,
2013-04-19 07:20:00,41.2,39.0,29.99,NNW,342,10.0,14.0,90,0.00,,,0.00,weatherlink.com 1.10,2013-04-19 06:20:00,
2013-04-19 07:35:00,41.8,39.0,30.00,North,9,5.0,12.0,89,0.00,,,0.00,weatherlink.com 1.10,2013-04-19 06:35:00,
2013-04-19 07:50:00,42.0,39.0,30.01,NNW,330,7.0,10.0,88,0.00,,,0.00,weatherlink.com 1.10,2013-04-19 06:50:00,
2013-04-19 08:05:00,42.0,39.0,30.02,NW,305,7.0,11.0,88,0.00,,,0.00,weatherlink.com 1.10,2013-04-19 07:05:00,
2013-04-19 08:20:00,42.3,39.0,30.02,NNW,346,4.0,10.0,88,0.00,,,0.00,weatherlink.com 1.10,2013-04-19 07:20:00,
2013-04-19 08:35:00,42.8,39.0,30.02,North,354,5.0,10.0,87,0.00,,,0.00,weatherlink.com 1.10,2013-04-19 07:35:00,
2013-04-19 08:50:00,43.3,40.0,30.03,NNW,337,6.0,12.0,87,0.00,,,0.00,weatherlink.com 1.10,2013-04-19 07:50:00,
2013-04-19 09:20:00,44.9,40.0,30.03,NNW,348,8.0,12.0,83,0.00,,,0.00,weatherlink.com 1.10,2013-04-19 08:20:00,
2013-04-19 09:35:00,45.2,40.0,30.04,NW,309,4.0,12.0,83,0.00,,,0.00,weatherlink.com 1.10,2013-04-19 08:35:00,
2013-04-19 09:51:00,46.0,41.0,30.04,North,4,7.0,10.0,82,0.00,,,0.00,weatherlink.com 1.10,2013-04-19 08:51:00,
2013-04-19 10:06:00,46.3,41.0,30.05,North,5,5.0,12.0,81,0.00,,,0.00,weatherlink.com 1.10,2013-04-19 09:06:00,
2013-04-19 10:21:00,47.1,41.0,30.05,North,356,5.0,11.0,79,0.00,,,0.00,weatherlink.com 1.10,2013-04-19 09:21:00,
2013-04-19 10:36:00,47.8,41.0,30.05,NNE,22,7.0,11.0,77,0.00,,,0.00,weatherlink.com 1.10,2013-04-19 09:36:00,
2013-04-19 10:51:00,47.7,40.0,30.05,NNW,345,9.0,14.0,74,0.00,,,0.00,weatherlink.com 1.10,2013-04-19 09:51:00,
2013-04-19 11:06:00,48.4,39.0,30.05,NE,35,10.0,16.0,71,0.00,,,0.00,weatherlink.com 1.10,2013-04-19 10:06:00,
2013-04-19 11:21:00,49.0,40.0,30.06,NNE,13,8.0,12.0,70,0.00,,,0.00,weatherlink.com 1.10,2013-04-19 10:21:00,
2013-04-19 11:36:00,49.0,38.0,30.06,NNE,27,4.0,13.0,66,0.00,,,0.00,weatherlink.com 1.10,2013-04-19 10:36:00,
2013-04-19 11:51:00,49.6,38.0,30.06,NNE,18,5.0,10.0,64,0.00,,,0.00,weatherlink.com 1.10,2013-04-19 10:51:00,
2013-04-19 12:06:00,49.7,37.0,30.07,NNE,27,7.0,13.0,63,0.00,,,0.00,weatherlink.com 1.10,2013-04-19 11:06:00,
2013-04-19 12:21:00,50.1,38.0,30.07,NW,309,4.0,13.0,63,0.00,,,0.00,weatherlink.com 1.10,2013-04-19 11:21:00,
2013-04-19 12:36:00,50.5,38.0,30.07,NW,320,6.0,13.0,63,0.00,,,0.00,weatherlink.com 1.10,2013-04-19 11:36:00,
2013-04-19 12:51:00,51.2,38.0,30.08,NW,322,5.0,10.0,61,0.00,,,0.00,weatherlink.com 1.10,2013-04-19 11:51:00,
2013-04-19 13:06:00,50.6,38.0,30.08,NNE,16,5.0,11.0,62,0.00,,,0.00,weatherlink.com 1.10,2013-04-19 12:06:00,
2013-04-19 13:21:00,50.8,38.0,30.08,WNW,300,2.0,11.0,61,0.00,,,0.00,weatherlink.com 1.10,2013-04-19 12:21:00,
2013-04-19 13:36:00,51.0,37.0,30.09,North,11,9.0,11.0,60,0.00,,,0.00,weatherlink.com 1.10,2013-04-19 12:36:00,
2013-04-19 13:51:00,52.4,38.0,30.09,North,4,4.0,12.0,59,0.00,,,0.00,weatherlink.com 1.10,2013-04-19 12:51:00,
2013-04-19 14:06:00,51.6,37.0,30.09,NNE,13,6.0,11.0,57,0.00,,,0.00,weatherlink.com 1.10,2013-04-19 13:06:00,
2013-04-19 14:21:00,51.6,37.0,30.09,NNW,339,6.0,10.0,57,0.00,,,0.00,weatherlink.com 1.10,2013-04-19 13:21:00,
2013-04-19 14:36:00,53.6,36.0,30.09,NNE,13,8.0,14.0,52,0.00,,,0.00,weatherlink.com 1.10,2013-04-19 13:36:00,
2013-04-19 14:51:00,53.6,36.0,30.09,NNW,333,6.0,10.0,52,0.00,,,0.00,weatherlink.com 1.10,2013-04-19 13:51:00,
2013-04-19 15:06:00,53.5,37.0,30.09,NE,36,6.0,10.0,54,0.00,,,0.00,weatherlink.com 1.10,2013-04-19 14:06:00,
2013-04-19 15:21:00,53.1,38.0,30.10,NE,39,6.0,8.0,56,0.00,,,0.00,weatherlink.com 1.10,2013-04-19 14:21:00,
2013-04-19 15:36:00,52.9,37.0,30.09,SSW,201,0.0,7.0,55,0.00,,,0.00,weatherlink.com 1.10,2013-04-19 14:36:00,
2013-04-19 15:51:00,53.5,37.0,30.09,NNE,25,6.0,8.0,53,0.00,,,0.00,weatherlink.com 1.10,2013-04-19 14:51:00,
2013-04-19 16:06:00,54.2,36.0,30.09,North,6,0.0,9.0,51,0.00,,,0.00,weatherlink.com 1.10,2013-04-19 15:06:00,
2013-04-19 16:22:00,55.1,36.0,30.09,SW,229,3.0,6.0,49,0.00,,,0.00,weatherlink.com 1.10,2013-04-19 15:22:00,
2013-04-19 16:37:00,56.0,36.0,30.09,NNE,16,3.0,8.0,47,0.00,,,0.00,weatherlink.com 1.10,2013-04-19 15:37:00,
2013-04-19 16:52:00,54.7,36.0,30.09,NNE,32,4.0,7.0,50,0.00,,,0.00,weatherlink.com 1.10,2013-04-19 15:52:00,
2013-04-19 17:07:00,54.2,37.0,30.09,NNW,347,5.0,10.0,52,0.00,,,0.00,weatherlink.com 1.10,2013-04-19 16:07:00,
2013-04-19 17:22:00,53.9,36.0,30.09,North,360,3.0,7.0,52,0.00,,,0.00,weatherlink.com 1.10,2013-04-19 16:22:00,
2013-04-19 17:37:00,54.3,40.0,30.10,NW,316,4.0,11.0,58,0.00,,,0.00,weatherlink.com 1.10,2013-04-19 16:37:00,
2013-04-19 17:52:00,53.5,39.0,30.10,WNW,283,6.0,10.0,59,0.00,,,0.00,weatherlink.com 1.10,2013-04-19 16:52:00,
2013-04-19 18:07:00,53.9,39.0,30.10,NW,325,4.0,7.0,57,0.00,,,0.00,weatherlink.com 1.10,2013-04-19 17:07:00,
2013-04-19 18:22:00,54.3,41.0,30.10,NNW,330,4.0,10.0,61,0.00,,,0.00,weatherlink.com 1.10,2013-04-19 17:22:00,
2013-04-19 18:37:00,54.3,38.0,30.10,WNW,297,5.0,10.0,55,0.00,,,0.00,weatherlink.com 1.10,2013-04-19 17:37:00,
2013-04-19 18:52:00,53.2,39.0,30.10,NNW,330,7.0,10.0,60,0.00,,,0.00,weatherlink.com 1.10,2013-04-19 17:52:00,
2013-04-19 19:07:00,52.7,40.0,30.10,NNW,333,3.0,7.0,63,0.00,,,0.00,weatherlink.com 1.10,2013-04-19 18:07:00,
2013-04-19 19:22:00,52.9,40.0,30.11,NNW,342,4.0,7.0,63,0.00,,,0.00,weatherlink.com 1.10,2013-04-19 18:22:00,
2013-04-19 19:37:00,53.1,42.0,30.11,NNE,19,1.0,8.0,65,0.00,,,0.00,weatherlink.com 1.10,2013-04-19 18:37:00,
2013-04-19 19:52:00,52.8,41.0,30.11,North,11,6.0,8.0,65,0.00,,,0.00,weatherlink.com 1.10,2013-04-19 18:52:00,
2013-04-19 20:07:00,52.5,41.0,30.11,NW,322,1.0,5.0,65,0.00,,,0.00,weatherlink.com 1.10,2013-04-19 19:07:00,
2013-04-19 20:22:00,51.7,41.0,30.12,WNW,288,1.0,5.0,68,0.00,,,0.00,weatherlink.com 1.10,2013-04-19 19:22:00,
2013-04-19 20:37:00,50.6,41.0,30.12,NW,309,0.0,4.0,70,0.00,,,0.00,weatherlink.com 1.10,2013-04-19 19:37:00,
2013-04-19 20:52:00,50.0,41.0,30.12,NW,325,1.0,3.0,71,0.00,,,0.00,weatherlink.com 1.10,2013-04-19 19:52:00,
2013-04-19 21:07:00,49.6,41.0,30.13,SSW,207,2.0,3.0,73,0.00,,,0.00,weatherlink.com 1.10,2013-04-19 20:07:00,
2013-04-19 21:22:00,48.6,41.0,30.13,SSW,208,3.0,4.0,76,0.00,,,0.00,weatherlink.com 1.10,2013-04-19 20:22:00,
2013-04-19 21:37:00,48.1,41.0,30.13,SW,226,3.0,5.0,77,0.00,,,0.00,weatherlink.com 1.10,2013-04-19 20:37:00,
2013-04-19 21:52:00,47.5,41.0,30.13,WSW,255,3.0,7.0,77,0.00,,,0.00,weatherlink.com 1.10,2013-04-19 20:52:00,
2013-04-19 22:07:00,46.9,40.0,30.14,WSW,246,6.0,6.0,77,0.00,,,0.00,weatherlink.com 1.10,2013-04-19 21:07:00,
2013-04-19 22:22:00,47.1,40.0,30.14,WNW,300,4.0,7.0,77,0.00,,,0.00,weatherlink.com 1.10,2013-04-19 21:22:00,
2013-04-19 22:37:00,46.9,40.0,30.15,West,266,3.0,7.0,76,0.00,,,0.00,weatherlink.com 1.10,2013-04-19 21:37:00,
2013-04-19 22:52:00,46.4,40.0,30.15,NNW,340,0.0,6.0,77,0.00,,,0.00,weatherlink.com 1.10,2013-04-19 21:52:00,
2013-04-19 23:07:00,46.0,39.0,30.15,WSW,256,5.0,8.0,77,0.00,,,0.00,weatherlink.com 1.10,2013-04-19 22:07:00,
2013-04-19 23:22:00,45.7,39.0,30.14,WSW,248,2.0,6.0,78,0.00,,,0.00,weatherlink.com 1.10,2013-04-19 22:22:00,
2013-04-19 23:37:00,45.4,39.0,30.15,WSW,253,5.0,8.0,78,0.00,,,0.00,weatherlink.com 1.10,2013-04-19 22:37:00,
2013-04-19 23:52:00,45.9,40.0,30.15,NW,321,2.0,10.0,79,0.00,,,0.00,weatherlink.com 1.10,2013-04-19 22:52:00,